sensor_id;sensor_type;location;lat;lon;timestamp;P1;durP1;ratioP1;P2;durP2;ratioP2
48207;SDS011;33997;53.278;9.708;2023-02-28T00:00:24;6.82;;;2.60;;
48207;SDS011;33997;53.278;9.708;2023-02-28T00:02:50;7.60;;;3.00;;
48207;SDS011;33997;53.278;9.708;2023-02-28T00:05:17;9.82;;;2.92;;
48207;SDS011;33997;53.278;9.708;2023-02-28T00:07:44;7.60;;;2.50;;
48207;SDS011;33997;53.278;9.708;2023-02-28T00:10:11;8.23;;;2.95;;
48207;SDS011;33997;53.278;9.708;2023-02-28T00:12:38;6.95;;;3.00;;
48207;SDS011;33997;53.278;9.708;2023-02-28T00:15:07;7.13;;;2.53;;
48207;SDS011;33997;53.278;9.708;2023-02-28T00:17:34;7.05;;;2.67;;
48207;SDS011;33997;53.278;9.708;2023-02-28T00:20:00;11.98;;;3.33;;
48207;SDS011;33997;53.278;9.708;2023-02-28T00:22:32;11.57;;;2.70;;
48207;SDS011;33997;53.278;9.708;2023-02-28T00:24:58;9.02;;;3.55;;
48207;SDS011;33997;53.278;9.708;2023-02-28T00:27:23;8.35;;;3.15;;
48207;SDS011;33997;53.278;9.708;2023-02-28T00:29:49;8.65;;;3.03;;
48207;SDS011;33997;53.278;9.708;2023-02-28T00:32:14;5.97;;;2.90;;
48207;SDS011;33997;53.278;9.708;2023-02-28T00:34:40;8.45;;;3.30;;
48207;SDS011;33997;53.278;9.708;2023-02-28T00:37:06;10.00;;;3.40;;
48207;SDS011;33997;53.278;9.708;2023-02-28T00:39:33;12.60;;;3.85;;
48207;SDS011;33997;53.278;9.708;2023-02-28T00:41:59;8.25;;;2.97;;
48207;SDS011;33997;53.278;9.708;2023-02-28T00:44:25;10.73;;;3.75;;
48207;SDS011;33997;53.278;9.708;2023-02-28T00:46:50;8.70;;;3.80;;
48207;SDS011;33997;53.278;9.708;2023-02-28T00:49:16;10.60;;;4.15;;
48207;SDS011;33997;53.278;9.708;2023-02-28T00:51:42;8.15;;;3.28;;
48207;SDS011;33997;53.278;9.708;2023-02-28T00:54:08;11.82;;;4.13;;
48207;SDS011;33997;53.278;9.708;2023-02-28T00:56:33;11.70;;;4.15;;
48207;SDS011;33997;53.278;9.708;2023-02-28T00:58:59;12.20;;;4.38;;
48207;SDS011;33997;53.278;9.708;2023-02-28T01:01:24;10.32;;;3.55;;
48207;SDS011;33997;53.278;9.708;2023-02-28T01:03:50;10.95;;;4.00;;
48207;SDS011;33997;53.278;9.708;2023-02-28T01:06:15;7.75;;;3.53;;
48207;SDS011;33997;53.278;9.708;2023-02-28T01:08:40;9.73;;;3.78;;
48207;SDS011;33997;53.278;9.708;2023-02-28T01:11:07;6.45;;;3.10;;
48207;SDS011;33997;53.278;9.708;2023-02-28T01:13:36;7.30;;;2.60;;
48207;SDS011;33997;53.278;9.708;2023-02-28T01:16:02;9.38;;;3.30;;
48207;SDS011;33997;53.278;9.708;2023-02-28T01:18:28;5.95;;;2.53;;
48207;SDS011;33997;53.278;9.708;2023-02-28T01:20:54;6.10;;;2.30;;
48207;SDS011;33997;53.278;9.708;2023-02-28T01:23:20;6.38;;;2.40;;
48207;SDS011;33997;53.278;9.708;2023-02-28T01:25:48;5.40;;;2.28;;
48207;SDS011;33997;53.278;9.708;2023-02-28T01:28:14;5.90;;;2.53;;
48207;SDS011;33997;53.278;9.708;2023-02-28T01:30:39;5.40;;;2.50;;
48207;SDS011;33997;53.278;9.708;2023-02-28T01:33:06;5.30;;;2.50;;
48207;SDS011;33997;53.278;9.708;2023-02-28T01:35:32;9.25;;;2.40;;
48207;SDS011;33997;53.278;9.708;2023-02-28T01:37:58;5.38;;;2.58;;
48207;SDS011;33997;53.278;9.708;2023-02-28T01:40:24;9.18;;;2.50;;
48207;SDS011;33997;53.278;9.708;2023-02-28T01:42:49;5.88;;;2.50;;
48207;SDS011;33997;53.278;9.708;2023-02-28T01:45:18;6.00;;;2.42;;
48207;SDS011;33997;53.278;9.708;2023-02-28T01:47:45;5.10;;;2.50;;
48207;SDS011;33997;53.278;9.708;2023-02-28T01:50:14;8.77;;;2.50;;
48207;SDS011;33997;53.278;9.708;2023-02-28T01:52:42;5.47;;;2.60;;
48207;SDS011;33997;53.278;9.708;2023-02-28T01:55:10;6.30;;;2.50;;
48207;SDS011;33997;53.278;9.708;2023-02-28T01:57:38;7.40;;;2.33;;
48207;SDS011;33997;53.278;9.708;2023-02-28T02:00:16;5.35;;;2.38;;
48207;SDS011;33997;53.278;9.708;2023-02-28T02:02:47;6.28;;;2.85;;
48207;SDS011;33997;53.278;9.708;2023-02-28T02:05:16;5.13;;;2.58;;
48207;SDS011;33997;53.278;9.708;2023-02-28T02:07:44;4.97;;;2.40;;
48207;SDS011;33997;53.278;9.708;2023-02-28T02:18:50;8.05;;;3.20;;
48207;SDS011;33997;53.278;9.708;2023-02-28T02:24:25;13.50;;;3.55;;
48207;SDS011;33997;53.278;9.708;2023-02-28T02:30:12;6.38;;;2.47;;
48207;SDS011;33997;53.278;9.708;2023-02-28T02:41:04;7.07;;;3.05;;
48207;SDS011;33997;53.278;9.708;2023-02-28T02:43:44;8.57;;;3.28;;
48207;SDS011;33997;53.278;9.708;2023-02-28T02:46:19;6.78;;;3.13;;
48207;SDS011;33997;53.278;9.708;2023-02-28T02:48:46;5.47;;;3.13;;
48207;SDS011;33997;53.278;9.708;2023-02-28T02:51:15;8.88;;;3.20;;
48207;SDS011;33997;53.278;9.708;2023-02-28T02:53:46;5.00;;;3.17;;
48207;SDS011;33997;53.278;9.708;2023-02-28T02:56:15;6.57;;;3.15;;
48207;SDS011;33997;53.278;9.708;2023-02-28T02:58:44;8.95;;;3.25;;
48207;SDS011;33997;53.278;9.708;2023-02-28T03:01:15;6.50;;;3.28;;
48207;SDS011;33997;53.278;9.708;2023-02-28T03:03:52;9.65;;;2.95;;
48207;SDS011;33997;53.278;9.708;2023-02-28T03:06:35;11.65;;;3.58;;
48207;SDS011;33997;53.278;9.708;2023-02-28T03:09:01;5.90;;;3.22;;
48207;SDS011;33997;53.278;9.708;2023-02-28T03:11:27;9.23;;;3.50;;
48207;SDS011;33997;53.278;9.708;2023-02-28T03:19:44;5.18;;;2.83;;
48207;SDS011;33997;53.278;9.708;2023-02-28T03:32:58;5.88;;;2.83;;
48207;SDS011;33997;53.278;9.708;2023-02-28T03:35:39;8.23;;;3.22;;
48207;SDS011;33997;53.278;9.708;2023-02-28T03:38:21;6.97;;;3.20;;
48207;SDS011;33997;53.278;9.708;2023-02-28T03:40:55;6.55;;;3.00;;
48207;SDS011;33997;53.278;9.708;2023-02-28T03:43:28;8.00;;;3.25;;
48207;SDS011;33997;53.278;9.708;2023-02-28T03:45:57;7.93;;;3.17;;
48207;SDS011;33997;53.278;9.708;2023-02-28T03:48:32;7.57;;;3.40;;
48207;SDS011;33997;53.278;9.708;2023-02-28T03:51:06;9.73;;;3.03;;
48207;SDS011;33997;53.278;9.708;2023-02-28T03:53:35;7.75;;;3.25;;
48207;SDS011;33997;53.278;9.708;2023-02-28T03:56:08;10.98;;;3.50;;
48207;SDS011;33997;53.278;9.708;2023-02-28T04:01:47;7.05;;;3.15;;
48207;SDS011;33997;53.278;9.708;2023-02-28T04:04:13;7.63;;;3.47;;
48207;SDS011;33997;53.278;9.708;2023-02-28T04:06:40;5.70;;;3.08;;
48207;SDS011;33997;53.278;9.708;2023-02-28T04:09:08;10.43;;;3.10;;
48207;SDS011;33997;53.278;9.708;2023-02-28T04:11:36;7.30;;;3.45;;
48207;SDS011;33997;53.278;9.708;2023-02-28T04:14:03;6.32;;;3.40;;
48207;SDS011;33997;53.278;9.708;2023-02-28T04:16:30;10.57;;;3.80;;
48207;SDS011;33997;53.278;9.708;2023-02-28T04:18:56;8.63;;;3.70;;
48207;SDS011;33997;53.278;9.708;2023-02-28T04:21:27;9.07;;;3.25;;
48207;SDS011;33997;53.278;9.708;2023-02-28T04:23:53;7.07;;;3.25;;
48207;SDS011;33997;53.278;9.708;2023-02-28T04:26:19;6.28;;;3.38;;
48207;SDS011;33997;53.278;9.708;2023-02-28T04:28:45;7.22;;;3.25;;
48207;SDS011;33997;53.278;9.708;2023-02-28T04:31:10;6.65;;;3.40;;
48207;SDS011;33997;53.278;9.708;2023-02-28T04:33:36;6.82;;;3.45;;
48207;SDS011;33997;53.278;9.708;2023-02-28T04:36:06;9.60;;;3.63;;
48207;SDS011;33997;53.278;9.708;2023-02-28T04:38:34;7.88;;;3.65;;
48207;SDS011;33997;53.278;9.708;2023-02-28T04:41:03;5.95;;;3.08;;
48207;SDS011;33997;53.278;9.708;2023-02-28T04:43:29;7.32;;;3.40;;
48207;SDS011;33997;53.278;9.708;2023-02-28T04:45:56;7.82;;;3.80;;
48207;SDS011;33997;53.278;9.708;2023-02-28T04:48:23;7.72;;;3.40;;
48207;SDS011;33997;53.278;9.708;2023-02-28T04:50:50;5.88;;;3.35;;
48207;SDS011;33997;53.278;9.708;2023-02-28T04:53:16;7.43;;;2.90;;
48207;SDS011;33997;53.278;9.708;2023-02-28T04:55:42;10.20;;;3.75;;
48207;SDS011;33997;53.278;9.708;2023-02-28T04:58:07;12.40;;;3.80;;
48207;SDS011;33997;53.278;9.708;2023-02-28T05:00:32;5.53;;;3.05;;
48207;SDS011;33997;53.278;9.708;2023-02-28T05:02:58;8.05;;;3.40;;
48207;SDS011;33997;53.278;9.708;2023-02-28T05:05:23;6.70;;;3.25;;
48207;SDS011;33997;53.278;9.708;2023-02-28T05:07:49;8.95;;;3.30;;
48207;SDS011;33997;53.278;9.708;2023-02-28T05:10:14;7.72;;;3.97;;
48207;SDS011;33997;53.278;9.708;2023-02-28T05:12:40;8.15;;;3.45;;
48207;SDS011;33997;53.278;9.708;2023-02-28T05:15:06;6.43;;;3.10;;
48207;SDS011;33997;53.278;9.708;2023-02-28T05:17:33;8.55;;;3.38;;
48207;SDS011;33997;53.278;9.708;2023-02-28T05:19:58;9.43;;;3.72;;
48207;SDS011;33997;53.278;9.708;2023-02-28T05:22:24;7.05;;;3.38;;
48207;SDS011;33997;53.278;9.708;2023-02-28T05:24:49;11.15;;;4.22;;
48207;SDS011;33997;53.278;9.708;2023-02-28T05:27:15;8.65;;;3.92;;
48207;SDS011;33997;53.278;9.708;2023-02-28T05:29:40;9.10;;;3.80;;
48207;SDS011;33997;53.278;9.708;2023-02-28T05:32:09;10.48;;;4.25;;
48207;SDS011;33997;53.278;9.708;2023-02-28T05:34:37;6.75;;;3.45;;
48207;SDS011;33997;53.278;9.708;2023-02-28T05:37:07;10.88;;;4.20;;
48207;SDS011;33997;53.278;9.708;2023-02-28T05:39:37;7.82;;;3.33;;
48207;SDS011;33997;53.278;9.708;2023-02-28T05:42:03;9.50;;;3.88;;
48207;SDS011;33997;53.278;9.708;2023-02-28T05:44:29;7.53;;;3.80;;
48207;SDS011;33997;53.278;9.708;2023-02-28T05:46:55;10.70;;;4.03;;
48207;SDS011;33997;53.278;9.708;2023-02-28T05:49:20;6.97;;;3.95;;
48207;SDS011;33997;53.278;9.708;2023-02-28T05:51:46;9.75;;;4.30;;
48207;SDS011;33997;53.278;9.708;2023-02-28T05:54:11;8.80;;;3.85;;
48207;SDS011;33997;53.278;9.708;2023-02-28T05:56:37;7.32;;;4.10;;
48207;SDS011;33997;53.278;9.708;2023-02-28T05:59:08;9.88;;;3.92;;
48207;SDS011;33997;53.278;9.708;2023-02-28T06:01:35;12.10;;;4.15;;
48207;SDS011;33997;53.278;9.708;2023-02-28T06:04:13;7.90;;;3.97;;
48207;SDS011;33997;53.278;9.708;2023-02-28T06:06:42;8.17;;;4.27;;
48207;SDS011;33997;53.278;9.708;2023-02-28T06:09:08;8.77;;;4.93;;
48207;SDS011;33997;53.278;9.708;2023-02-28T06:11:34;11.15;;;5.30;;
48207;SDS011;33997;53.278;9.708;2023-02-28T06:14:00;12.85;;;5.25;;
48207;SDS011;33997;53.278;9.708;2023-02-28T06:16:27;12.32;;;6.30;;
48207;SDS011;33997;53.278;9.708;2023-02-28T06:18:53;15.23;;;6.07;;
48207;SDS011;33997;53.278;9.708;2023-02-28T06:21:20;14.73;;;7.57;;
48207;SDS011;33997;53.278;9.708;2023-02-28T06:23:46;17.92;;;8.07;;
48207;SDS011;33997;53.278;9.708;2023-02-28T06:26:12;23.60;;;8.70;;
48207;SDS011;33997;53.278;9.708;2023-02-28T06:28:38;16.10;;;8.02;;
48207;SDS011;33997;53.278;9.708;2023-02-28T06:31:07;16.77;;;7.07;;
48207;SDS011;33997;53.278;9.708;2023-02-28T06:33:34;16.27;;;7.53;;
48207;SDS011;33997;53.278;9.708;2023-02-28T06:35:59;18.33;;;8.40;;
48207;SDS011;33997;53.278;9.708;2023-02-28T06:38:25;17.80;;;8.43;;
48207;SDS011;33997;53.278;9.708;2023-02-28T06:40:54;18.67;;;8.38;;
48207;SDS011;33997;53.278;9.708;2023-02-28T06:43:21;18.23;;;7.47;;
48207;SDS011;33997;53.278;9.708;2023-02-28T06:45:47;15.13;;;7.85;;
48207;SDS011;33997;53.278;9.708;2023-02-28T06:48:12;18.20;;;8.10;;
48207;SDS011;33997;53.278;9.708;2023-02-28T06:50:38;15.40;;;7.65;;
48207;SDS011;33997;53.278;9.708;2023-02-28T06:53:03;14.63;;;7.35;;
48207;SDS011;33997;53.278;9.708;2023-02-28T06:55:29;19.08;;;8.25;;
48207;SDS011;33997;53.278;9.708;2023-02-28T06:57:55;21.10;;;8.57;;
48207;SDS011;33997;53.278;9.708;2023-02-28T07:00:20;15.82;;;8.20;;
48207;SDS011;33997;53.278;9.708;2023-02-28T07:02:46;15.45;;;8.73;;
48207;SDS011;33997;53.278;9.708;2023-02-28T07:05:12;21.75;;;9.60;;
48207;SDS011;33997;53.278;9.708;2023-02-28T07:07:38;19.48;;;9.18;;
48207;SDS011;33997;53.278;9.708;2023-02-28T07:10:08;16.85;;;8.45;;
48207;SDS011;33997;53.278;9.708;2023-02-28T07:12:36;16.33;;;8.98;;
48207;SDS011;33997;53.278;9.708;2023-02-28T07:15:03;17.63;;;8.38;;
48207;SDS011;33997;53.278;9.708;2023-02-28T07:17:30;17.52;;;8.63;;
48207;SDS011;33997;53.278;9.708;2023-02-28T07:19:55;14.35;;;8.98;;
48207;SDS011;33997;53.278;9.708;2023-02-28T07:22:21;18.13;;;8.48;;
48207;SDS011;33997;53.278;9.708;2023-02-28T07:24:46;16.77;;;8.60;;
48207;SDS011;33997;53.278;9.708;2023-02-28T07:27:12;18.25;;;8.77;;
48207;SDS011;33997;53.278;9.708;2023-02-28T07:29:50;17.38;;;8.35;;
48207;SDS011;33997;53.278;9.708;2023-02-28T07:32:16;16.15;;;7.53;;
48207;SDS011;33997;53.278;9.708;2023-02-28T07:34:41;16.42;;;7.90;;
48207;SDS011;33997;53.278;9.708;2023-02-28T07:37:07;14.98;;;8.45;;
48207;SDS011;33997;53.278;9.708;2023-02-28T07:39:32;15.18;;;7.68;;
48207;SDS011;33997;53.278;9.708;2023-02-28T07:41:58;18.35;;;8.73;;
48207;SDS011;33997;53.278;9.708;2023-02-28T07:44:24;16.00;;;8.48;;
48207;SDS011;33997;53.278;9.708;2023-02-28T07:46:50;15.45;;;8.05;;
48207;SDS011;33997;53.278;9.708;2023-02-28T07:49:16;17.67;;;8.38;;
48207;SDS011;33997;53.278;9.708;2023-02-28T07:51:41;13.50;;;7.88;;
48207;SDS011;33997;53.278;9.708;2023-02-28T07:54:07;15.57;;;7.60;;
48207;SDS011;33997;53.278;9.708;2023-02-28T07:56:32;16.80;;;7.75;;
48207;SDS011;33997;53.278;9.708;2023-02-28T07:58:58;11.55;;;7.63;;
48207;SDS011;33997;53.278;9.708;2023-02-28T08:01:23;15.20;;;7.32;;
48207;SDS011;33997;53.278;9.708;2023-02-28T08:03:49;12.05;;;6.45;;
48207;SDS011;33997;53.278;9.708;2023-02-28T08:06:15;12.38;;;5.88;;
48207;SDS011;33997;53.278;9.708;2023-02-28T08:08:43;9.48;;;5.60;;
48207;SDS011;33997;53.278;9.708;2023-02-28T08:11:09;9.82;;;4.63;;
48207;SDS011;33997;53.278;9.708;2023-02-28T08:13:34;8.23;;;3.70;;
48207;SDS011;33997;53.278;9.708;2023-02-28T08:16:01;7.07;;;3.20;;
48207;SDS011;33997;53.278;9.708;2023-02-28T08:18:27;5.18;;;2.67;;
48207;SDS011;33997;53.278;9.708;2023-02-28T08:20:52;11.98;;;2.72;;
48207;SDS011;33997;53.278;9.708;2023-02-28T08:23:18;7.43;;;2.40;;
48207;SDS011;33997;53.278;9.708;2023-02-28T08:25:43;3.88;;;1.73;;
48207;SDS011;33997;53.278;9.708;2023-02-28T08:28:09;3.35;;;1.85;;
48207;SDS011;33997;53.278;9.708;2023-02-28T08:30:34;4.70;;;1.92;;
48207;SDS011;33997;53.278;9.708;2023-02-28T08:33:00;4.15;;;1.50;;
48207;SDS011;33997;53.278;9.708;2023-02-28T08:35:26;5.32;;;1.90;;
48207;SDS011;33997;53.278;9.708;2023-02-28T08:37:52;3.53;;;1.95;;
48207;SDS011;33997;53.278;9.708;2023-02-28T08:40:17;5.45;;;2.03;;
48207;SDS011;33997;53.278;9.708;2023-02-28T08:42:46;5.82;;;1.70;;
48207;SDS011;33997;53.278;9.708;2023-02-28T08:45:13;3.92;;;1.70;;
48207;SDS011;33997;53.278;9.708;2023-02-28T08:47:40;6.03;;;2.10;;
48207;SDS011;33997;53.278;9.708;2023-02-28T08:50:06;2.92;;;1.60;;
48207;SDS011;33997;53.278;9.708;2023-02-28T08:52:32;5.75;;;1.88;;
48207;SDS011;33997;53.278;9.708;2023-02-28T08:54:58;5.07;;;1.80;;
48207;SDS011;33997;53.278;9.708;2023-02-28T08:57:23;3.58;;;1.70;;
48207;SDS011;33997;53.278;9.708;2023-02-28T08:59:51;5.25;;;1.73;;
48207;SDS011;33997;53.278;9.708;2023-02-28T09:02:16;2.55;;;1.30;;
48207;SDS011;33997;53.278;9.708;2023-02-28T09:04:42;3.08;;;1.10;;
48207;SDS011;33997;53.278;9.708;2023-02-28T09:07:10;2.15;;;0.85;;
48207;SDS011;33997;53.278;9.708;2023-02-28T09:09:36;2.55;;;0.90;;
48207;SDS011;33997;53.278;9.708;2023-02-28T09:12:01;2.70;;;1.13;;
48207;SDS011;33997;53.278;9.708;2023-02-28T09:14:27;1.95;;;1.00;;
48207;SDS011;33997;53.278;9.708;2023-02-28T09:16:53;3.30;;;1.15;;
48207;SDS011;33997;53.278;9.708;2023-02-28T09:19:19;1.98;;;0.80;;
48207;SDS011;33997;53.278;9.708;2023-02-28T09:21:45;2.67;;;0.90;;
48207;SDS011;33997;53.278;9.708;2023-02-28T09:24:10;5.75;;;1.10;;
48207;SDS011;33997;53.278;9.708;2023-02-28T09:26:39;1.42;;;0.60;;
48207;SDS011;33997;53.278;9.708;2023-02-28T09:29:05;1.67;;;0.77;;
48207;SDS011;33997;53.278;9.708;2023-02-28T09:31:31;2.65;;;0.70;;
48207;SDS011;33997;53.278;9.708;2023-02-28T09:33:57;1.98;;;0.80;;
48207;SDS011;33997;53.278;9.708;2023-02-28T09:36:24;1.67;;;0.40;;
48207;SDS011;33997;53.278;9.708;2023-02-28T09:38:51;1.98;;;0.68;;
48207;SDS011;33997;53.278;9.708;2023-02-28T09:41:21;1.40;;;0.68;;
48207;SDS011;33997;53.278;9.708;2023-02-28T09:43:51;2.65;;;0.80;;
48207;SDS011;33997;53.278;9.708;2023-02-28T09:46:31;0.98;;;0.60;;
48207;SDS011;33997;53.278;9.708;2023-02-28T09:49:04;1.63;;;0.90;;
48207;SDS011;33997;53.278;9.708;2023-02-28T09:51:34;1.58;;;0.68;;
48207;SDS011;33997;53.278;9.708;2023-02-28T09:54:16;1.67;;;0.90;;
48207;SDS011;33997;53.278;9.708;2023-02-28T09:56:45;2.85;;;1.20;;
48207;SDS011;33997;53.278;9.708;2023-02-28T09:59:36;7.15;;;1.98;;
48207;SDS011;33997;53.278;9.708;2023-02-28T10:05:09;4.95;;;1.17;;
48207;SDS011;33997;53.278;9.708;2023-02-28T10:13:18;2.45;;;0.93;;
48207;SDS011;33997;53.278;9.708;2023-02-28T10:16:01;2.63;;;0.80;;
48207;SDS011;33997;53.278;9.708;2023-02-28T10:22:00;3.63;;;1.20;;
48207;SDS011;33997;53.278;9.708;2023-02-28T10:24:45;2.30;;;1.08;;
48207;SDS011;33997;53.278;9.708;2023-02-28T10:27:23;2.45;;;1.10;;
48207;SDS011;33997;53.278;9.708;2023-02-28T10:29:51;2.33;;;0.95;;
48207;SDS011;33997;53.278;9.708;2023-02-28T10:32:19;1.65;;;0.88;;
48207;SDS011;33997;53.278;9.708;2023-02-28T10:34:51;1.55;;;0.90;;
48207;SDS011;33997;53.278;9.708;2023-02-28T10:37:21;1.35;;;0.90;;
48207;SDS011;33997;53.278;9.708;2023-02-28T10:39:47;2.05;;;0.80;;
48207;SDS011;33997;53.278;9.708;2023-02-28T10:42:25;1.42;;;0.80;;
48207;SDS011;33997;53.278;9.708;2023-02-28T10:45:09;3.03;;;0.88;;
48207;SDS011;33997;53.278;9.708;2023-02-28T10:47:40;3.33;;;0.90;;
48207;SDS011;33997;53.278;9.708;2023-02-28T10:52:53;4.22;;;1.25;;
48207;SDS011;33997;53.278;9.708;2023-02-28T10:55:23;3.85;;;1.08;;
48207;SDS011;33997;53.278;9.708;2023-02-28T10:57:50;2.65;;;0.80;;
48207;SDS011;33997;53.278;9.708;2023-02-28T11:00:17;2.20;;;0.95;;
48207;SDS011;33997;53.278;9.708;2023-02-28T11:02:45;2.42;;;0.95;;
48207;SDS011;33997;53.278;9.708;2023-02-28T11:07:58;1.77;;;0.80;;
48207;SDS011;33997;53.278;9.708;2023-02-28T11:10:31;2.00;;;1.08;;
48207;SDS011;33997;53.278;9.708;2023-02-28T11:12:59;1.83;;;0.88;;
48207;SDS011;33997;53.278;9.708;2023-02-28T11:15:27;4.07;;;1.00;;
48207;SDS011;33997;53.278;9.708;2023-02-28T11:17:55;2.47;;;0.88;;
48207;SDS011;33997;53.278;9.708;2023-02-28T11:20:41;1.75;;;0.90;;
48207;SDS011;33997;53.278;9.708;2023-02-28T11:23:10;2.72;;;1.20;;
48207;SDS011;33997;53.278;9.708;2023-02-28T11:25:38;2.58;;;0.80;;
48207;SDS011;33997;53.278;9.708;2023-02-28T11:28:05;1.85;;;1.00;;
48207;SDS011;33997;53.278;9.708;2023-02-28T11:30:49;3.15;;;0.98;;
48207;SDS011;33997;53.278;9.708;2023-02-28T11:33:28;2.75;;;0.88;;
48207;SDS011;33997;53.278;9.708;2023-02-28T11:35:55;2.78;;;0.98;;
48207;SDS011;33997;53.278;9.708;2023-02-28T11:38:25;2.10;;;0.93;;
48207;SDS011;33997;53.278;9.708;2023-02-28T11:51:27;3.20;;;1.10;;
48207;SDS011;33997;53.278;9.708;2023-02-28T11:54:03;1.45;;;0.85;;
48207;SDS011;33997;53.278;9.708;2023-02-28T11:56:51;2.33;;;0.80;;
48207;SDS011;33997;53.278;9.708;2023-02-28T12:05:45;4.72;;;1.02;;
48207;SDS011;33997;53.278;9.708;2023-02-28T12:16:29;2.35;;;0.80;;
48207;SDS011;33997;53.278;9.708;2023-02-28T12:19:01;2.17;;;0.77;;
48207;SDS011;33997;53.278;9.708;2023-02-28T12:21:48;3.03;;;1.08;;
48207;SDS011;33997;53.278;9.708;2023-02-28T12:24:45;3.78;;;1.25;;
48207;SDS011;33997;53.278;9.708;2023-02-28T12:27:22;2.22;;;1.02;;
48207;SDS011;33997;53.278;9.708;2023-02-28T12:29:54;4.45;;;1.10;;
48207;SDS011;33997;53.278;9.708;2023-02-28T12:32:33;2.35;;;1.02;;
48207;SDS011;33997;53.278;9.708;2023-02-28T12:37:43;3.67;;;1.10;;
48207;SDS011;33997;53.278;9.708;2023-02-28T12:40:21;2.10;;;1.00;;
48207;SDS011;33997;53.278;9.708;2023-02-28T12:42:51;1.50;;;0.82;;
48207;SDS011;33997;53.278;9.708;2023-02-28T12:45:30;3.22;;;1.00;;
48207;SDS011;33997;53.278;9.708;2023-02-28T12:48:06;1.83;;;0.90;;
48207;SDS011;33997;53.278;9.708;2023-02-28T12:50:35;1.90;;;0.90;;
48207;SDS011;33997;53.278;9.708;2023-02-28T12:53:03;2.53;;;0.90;;
48207;SDS011;33997;53.278;9.708;2023-02-28T12:55:47;2.25;;;0.90;;
48207;SDS011;33997;53.278;9.708;2023-02-28T12:58:22;1.80;;;0.95;;
48207;SDS011;33997;53.278;9.708;2023-02-28T13:07:00;1.67;;;0.63;;
48207;SDS011;33997;53.278;9.708;2023-02-28T13:09:57;2.03;;;0.70;;
48207;SDS011;33997;53.278;9.708;2023-02-28T13:12:25;3.20;;;0.80;;
48207;SDS011;33997;53.278;9.708;2023-02-28T13:14:51;4.20;;;1.00;;
48207;SDS011;33997;53.278;9.708;2023-02-28T13:17:29;2.53;;;1.05;;
48207;SDS011;33997;53.278;9.708;2023-02-28T13:19:56;3.08;;;0.82;;
48207;SDS011;33997;53.278;9.708;2023-02-28T13:22:42;2.22;;;0.63;;
48207;SDS011;33997;53.278;9.708;2023-02-28T13:27:48;3.08;;;0.75;;
48207;SDS011;33997;53.278;9.708;2023-02-28T13:35:45;2.97;;;0.80;;
48207;SDS011;33997;53.278;9.708;2023-02-28T13:38:21;1.23;;;1.05;;
48207;SDS011;33997;53.278;9.708;2023-02-28T13:40:49;2.08;;;0.88;;
48207;SDS011;33997;53.278;9.708;2023-02-28T13:43:16;1.92;;;0.88;;
48207;SDS011;33997;53.278;9.708;2023-02-28T13:46:03;2.95;;;1.02;;
48207;SDS011;33997;53.278;9.708;2023-02-28T13:48:34;1.58;;;0.65;;
48207;SDS011;33997;53.278;9.708;2023-02-28T13:51:00;2.45;;;0.80;;
48207;SDS011;33997;53.278;9.708;2023-02-28T13:54:07;1.35;;;0.70;;
48207;SDS011;33997;53.278;9.708;2023-02-28T13:57:12;2.03;;;0.60;;
48207;SDS011;33997;53.278;9.708;2023-02-28T14:03:28;2.13;;;0.80;;
48207;SDS011;33997;53.278;9.708;2023-02-28T14:06:17;1.48;;;0.80;;
48207;SDS011;33997;53.278;9.708;2023-02-28T14:11:48;1.95;;;0.77;;
48207;SDS011;33997;53.278;9.708;2023-02-28T14:17:01;1.33;;;0.60;;
48207;SDS011;33997;53.278;9.708;2023-02-28T14:19:29;2.17;;;0.70;;
48207;SDS011;33997;53.278;9.708;2023-02-28T14:22:12;1.63;;;0.50;;
48207;SDS011;33997;53.278;9.708;2023-02-28T14:27:48;1.50;;;0.73;;
48207;SDS011;33997;53.278;9.708;2023-02-28T14:33:35;2.47;;;0.80;;
48207;SDS011;33997;53.278;9.708;2023-02-28T14:36:13;2.15;;;0.68;;
48207;SDS011;33997;53.278;9.708;2023-02-28T14:38:56;1.00;;;0.50;;
48207;SDS011;33997;53.278;9.708;2023-02-28T14:41:33;5.50;;;0.97;;
48207;SDS011;33997;53.278;9.708;2023-02-28T14:44:02;2.20;;;0.80;;
48207;SDS011;33997;53.278;9.708;2023-02-28T14:46:39;2.47;;;0.85;;
48207;SDS011;33997;53.278;9.708;2023-02-28T14:49:06;2.50;;;0.90;;
48207;SDS011;33997;53.278;9.708;2023-02-28T14:52:01;3.20;;;0.82;;
48207;SDS011;33997;53.278;9.708;2023-02-28T14:54:31;1.65;;;0.70;;
48207;SDS011;33997;53.278;9.708;2023-02-28T14:56:56;1.13;;;0.63;;
48207;SDS011;33997;53.278;9.708;2023-02-28T14:59:26;1.70;;;0.75;;
48207;SDS011;33997;53.278;9.708;2023-02-28T15:04:39;2.95;;;0.80;;
48207;SDS011;33997;53.278;9.708;2023-02-28T15:07:07;3.42;;;0.80;;
48207;SDS011;33997;53.278;9.708;2023-02-28T15:09:33;1.73;;;0.70;;
48207;SDS011;33997;53.278;9.708;2023-02-28T15:11:59;2.15;;;0.80;;
48207;SDS011;33997;53.278;9.708;2023-02-28T15:14:24;1.27;;;0.65;;
48207;SDS011;33997;53.278;9.708;2023-02-28T15:16:55;1.95;;;0.90;;
48207;SDS011;33997;53.278;9.708;2023-02-28T15:19:32;3.33;;;1.17;;
48207;SDS011;33997;53.278;9.708;2023-02-28T15:22:04;3.78;;;1.10;;
48207;SDS011;33997;53.278;9.708;2023-02-28T15:24:44;3.15;;;1.20;;
48207;SDS011;33997;53.278;9.708;2023-02-28T15:27:15;2.10;;;0.90;;
48207;SDS011;33997;53.278;9.708;2023-02-28T15:29:51;3.28;;;1.20;;
48207;SDS011;33997;53.278;9.708;2023-02-28T15:32:23;3.33;;;1.10;;
48207;SDS011;33997;53.278;9.708;2023-02-28T15:34:59;2.33;;;1.17;;
48207;SDS011;33997;53.278;9.708;2023-02-28T15:37:48;4.97;;;2.22;;
48207;SDS011;33997;53.278;9.708;2023-02-28T15:40:38;2.40;;;1.08;;
48207;SDS011;33997;53.278;9.708;2023-02-28T15:43:13;2.78;;;1.13;;
48207;SDS011;33997;53.278;9.708;2023-02-28T15:45:47;5.95;;;3.05;;
48207;SDS011;33997;53.278;9.708;2023-02-28T15:48:25;5.80;;;1.95;;
48207;SDS011;33997;53.278;9.708;2023-02-28T15:50:57;5.85;;;1.98;;
48207;SDS011;33997;53.278;9.708;2023-02-28T15:53:35;4.03;;;1.30;;
48207;SDS011;33997;53.278;9.708;2023-02-28T15:56:22;2.58;;;1.25;;
48207;SDS011;33997;53.278;9.708;2023-02-28T15:58:50;2.78;;;1.20;;
48207;SDS011;33997;53.278;9.708;2023-02-28T16:01:21;2.53;;;1.13;;
48207;SDS011;33997;53.278;9.708;2023-02-28T16:06:40;3.38;;;1.20;;
48207;SDS011;33997;53.278;9.708;2023-02-28T16:09:16;2.45;;;1.10;;
48207;SDS011;33997;53.278;9.708;2023-02-28T16:11:46;2.47;;;1.10;;
48207;SDS011;33997;53.278;9.708;2023-02-28T16:14:18;1.80;;;0.90;;
48207;SDS011;33997;53.278;9.708;2023-02-28T16:16:49;2.92;;;1.08;;
48207;SDS011;33997;53.278;9.708;2023-02-28T16:19:17;3.88;;;1.40;;
48207;SDS011;33997;53.278;9.708;2023-02-28T16:21:43;3.67;;;1.92;;
48207;SDS011;33997;53.278;9.708;2023-02-28T16:24:09;3.20;;;1.33;;
48207;SDS011;33997;53.278;9.708;2023-02-28T16:26:34;5.13;;;1.88;;
48207;SDS011;33997;53.278;9.708;2023-02-28T16:29:02;7.53;;;2.67;;
48207;SDS011;33997;53.278;9.708;2023-02-28T16:31:28;3.22;;;1.45;;
48207;SDS011;33997;53.278;9.708;2023-02-28T16:33:54;3.53;;;1.30;;
48207;SDS011;33997;53.278;9.708;2023-02-28T16:36:21;2.20;;;1.38;;
48207;SDS011;33997;53.278;9.708;2023-02-28T16:38:51;4.93;;;1.50;;
48207;SDS011;33997;53.278;9.708;2023-02-28T16:41:26;3.10;;;1.23;;
48207;SDS011;33997;53.278;9.708;2023-02-28T16:43:54;4.68;;;1.63;;
48207;SDS011;33997;53.278;9.708;2023-02-28T16:46:25;2.60;;;1.30;;
48207;SDS011;33997;53.278;9.708;2023-02-28T16:48:54;3.00;;;1.50;;
48207;SDS011;33997;53.278;9.708;2023-02-28T16:51:20;5.65;;;1.52;;
48207;SDS011;33997;53.278;9.708;2023-02-28T16:53:45;5.38;;;1.55;;
48207;SDS011;33997;53.278;9.708;2023-02-28T16:56:13;8.82;;;1.50;;
48207;SDS011;33997;53.278;9.708;2023-02-28T16:58:47;3.53;;;1.77;;
48207;SDS011;33997;53.278;9.708;2023-02-28T17:01:13;4.25;;;1.42;;
48207;SDS011;33997;53.278;9.708;2023-02-28T17:03:39;4.35;;;1.70;;